createdAt,value
2023-05-21T00:00:17.127Z,24.25
2023-05-21T00:01:17.184Z,24.25
2023-05-21T00:02:17.190Z,24.23
2023-05-21T00:03:17.177Z,24.20
2023-05-21T00:04:17.339Z,24.20
2023-05-21T00:05:18.141Z,24.18
2023-05-21T00:06:18.209Z,24.20
2023-05-21T00:07:18.276Z,24.20
2023-05-21T00:08:17.432Z,24.19
2023-05-21T00:09:17.372Z,24.17
2023-05-21T00:10:17.386Z,24.15
2023-05-21T00:11:18.487Z,24.13
2023-05-21T00:12:17.297Z,24.17
2023-05-21T00:13:17.289Z,24.15
2023-05-21T00:14:18.225Z,24.16
2023-05-21T00:15:17.240Z,24.16
2023-05-21T00:16:17.418Z,24.14
2023-05-21T00:17:17.257Z,24.15
2023-05-21T00:18:18.281Z,24.15
2023-05-21T00:19:18.359Z,24.12
2023-05-21T00:20:18.325Z,24.13
2023-05-21T00:21:17.528Z,24.13
2023-05-21T00:22:17.611Z,24.11
2023-05-21T00:23:17.393Z,24.10
2023-05-21T00:24:17.561Z,24.13
2023-05-21T00:25:18.414Z,24.11
2023-05-21T00:26:18.472Z,24.12
2023-05-21T00:27:17.398Z,24.13
2023-05-21T00:28:17.596Z,24.11
2023-05-21T00:29:17.389Z,24.09
2023-05-21T00:30:18.637Z,24.10
2023-05-21T00:31:17.450Z,24.17
2023-05-21T00:32:17.426Z,24.12
2023-05-21T00:33:17.688Z,24.16
2023-05-21T00:34:17.508Z,24.13
2023-05-21T00:35:17.575Z,24.12
2023-05-21T00:36:17.511Z,24.11
2023-05-21T00:37:17.554Z,24.09
2023-05-21T00:38:17.625Z,24.09
2023-05-21T00:39:17.768Z,24.08
2023-05-21T00:40:17.828Z,24.09
2023-05-21T00:41:17.714Z,24.08
2023-05-21T00:42:18.661Z,24.07
2023-05-21T00:43:17.757Z,24.08
2023-05-21T00:44:17.880Z,24.10
2023-05-21T00:45:18.836Z,24.11
2023-05-21T00:46:18.944Z,24.11
2023-05-21T00:47:17.760Z,24.08
2023-05-21T00:48:17.873Z,24.11
2023-05-21T00:49:17.976Z,24.09
2023-05-21T00:50:18.757Z,24.07
2023-05-21T00:51:18.950Z,24.06
2023-05-21T00:52:17.853Z,24.06
2023-05-21T00:53:17.980Z,24.07
2023-05-21T00:54:18.839Z,24.07
2023-05-21T00:55:17.853Z,24.07
2023-05-21T00:56:18.047Z,24.05
2023-05-21T00:57:18.192Z,24.06
2023-05-21T00:58:18.979Z,24.07
2023-05-21T00:59:19.165Z,24.06
2023-05-21T01:00:18.023Z,24.05
2023-05-21T01:01:19.359Z,24.03
2023-05-21T01:02:19.033Z,24.04
2023-05-21T01:03:18.080Z,24.03
2023-05-21T01:04:19.052Z,24.07
2023-05-21T01:05:18.174Z,24.04
2023-05-21T01:06:18.205Z,24.06
2023-05-21T01:07:18.108Z,24.05
2023-05-21T01:08:18.185Z,24.06
2023-05-21T01:09:18.238Z,24.06
2023-05-21T01:10:18.185Z,24.06
2023-05-21T01:11:19.340Z,24.04
2023-05-21T01:12:18.222Z,24.06
2023-05-21T01:13:19.220Z,24.02
2023-05-21T01:14:18.265Z,24.02
2023-05-21T01:15:18.289Z,23.99
2023-05-21T01:16:18.528Z,23.96
2023-05-21T01:17:19.467Z,24.00
2023-05-21T01:18:19.440Z,23.98
2023-05-21T01:19:18.645Z,23.99
2023-05-21T01:20:19.503Z,23.99
2023-05-21T01:21:19.534Z,23.98
2023-05-21T01:22:18.528Z,23.98
2023-05-21T01:23:18.601Z,23.97
2023-05-21T01:24:18.581Z,23.95
2023-05-21T01:25:19.519Z,23.94
2023-05-21T01:26:18.564Z,23.94
2023-05-21T01:27:19.837Z,23.98
2023-05-21T01:28:19.704Z,23.98
2023-05-21T01:29:18.697Z,23.95
2023-05-21T01:30:18.811Z,23.94
2023-05-21T01:31:18.744Z,23.93
2023-05-21T01:32:19.980Z,23.99
2023-05-21T01:33:19.050Z,24.00
2023-05-21T01:34:18.996Z,23.96
2023-05-21T01:35:18.805Z,23.97
2023-05-21T01:36:18.832Z,23.97
2023-05-21T01:37:19.056Z,23.95
2023-05-21T01:38:19.992Z,23.94
2023-05-21T01:39:19.060Z,23.96
2023-05-21T01:40:19.970Z,23.94
2023-05-21T01:41:19.023Z,23.95
2023-05-21T01:42:20.106Z,23.95
2023-05-21T01:43:19.170Z,23.94
2023-05-21T01:44:19.332Z,23.95
2023-05-21T01:45:20.147Z,23.97
2023-05-21T01:46:20.199Z,23.96
2023-05-21T01:47:19.244Z,23.99
2023-05-21T01:48:19.455Z,23.96
2023-05-21T01:49:19.331Z,23.94
2023-05-21T01:50:19.296Z,23.94
2023-05-21T01:51:19.299Z,23.92
2023-05-21T01:52:19.329Z,23.95
2023-05-21T01:53:19.465Z,23.94
2023-05-21T01:54:19.384Z,23.92
2023-05-21T01:55:20.532Z,23.94
2023-05-21T01:56:20.652Z,23.96
2023-05-21T01:57:19.555Z,23.95
2023-05-21T01:58:20.501Z,23.95
2023-05-21T01:59:20.531Z,23.92
2023-05-21T02:00:19.720Z,23.90
2023-05-21T02:01:19.732Z,23.89
2023-05-21T02:02:20.893Z,23.90
2023-05-21T02:03:20.775Z,23.93
2023-05-21T02:04:19.678Z,23.92
2023-05-21T02:05:20.715Z,23.90
2023-05-21T02:06:20.914Z,23.95
2023-05-21T02:07:19.845Z,23.92
2023-05-21T02:08:20.830Z,23.91
2023-05-21T02:09:20.828Z,23.91
2023-05-21T02:10:19.871Z,23.90
2023-05-21T02:11:21.046Z,23.92
2023-05-21T02:12:21.164Z,23.91
2023-05-21T02:13:19.973Z,23.89
2023-05-21T02:14:21.003Z,23.89
2023-05-21T02:15:21.191Z,23.88
2023-05-21T02:16:20.153Z,23.84
2023-05-21T02:17:20.232Z,23.86
2023-05-21T02:18:20.188Z,23.86
2023-05-21T02:19:21.238Z,23.84
2023-05-21T02:20:21.256Z,23.86
2023-05-21T02:21:21.333Z,23.84
2023-05-21T02:22:20.337Z,23.84
2023-05-21T02:23:21.457Z,23.84
2023-05-21T02:24:20.422Z,23.83
2023-05-21T02:25:20.541Z,23.84
2023-05-21T02:26:20.712Z,23.83
2023-05-21T02:27:20.650Z,23.83
2023-05-21T02:28:20.746Z,23.85
2023-05-21T02:29:20.614Z,23.84
2023-05-21T02:30:20.746Z,23.85
2023-05-21T02:31:20.677Z,23.85
2023-05-21T02:32:21.830Z,23.83
2023-05-21T02:33:21.804Z,23.84
2023-05-21T02:34:22.049Z,23.83
2023-05-21T02:35:21.856Z,23.83
2023-05-21T02:36:20.994Z,23.82
2023-05-21T02:37:21.141Z,23.83
2023-05-21T02:38:22.182Z,23.83
2023-05-21T02:39:22.008Z,23.84
2023-05-21T02:40:22.087Z,23.80
2023-05-21T02:41:22.117Z,23.79
2023-05-21T02:42:22.403Z,23.79
2023-05-21T02:43:21.233Z,23.80
2023-05-21T02:44:21.221Z,23.80
2023-05-21T02:45:22.387Z,23.80
2023-05-21T02:46:21.259Z,23.81
2023-05-21T02:47:21.270Z,23.79
2023-05-21T02:48:21.375Z,23.78
2023-05-21T02:49:21.421Z,23.78
2023-05-21T02:50:21.661Z,23.79
2023-05-21T02:51:21.507Z,23.78
2023-05-21T02:52:22.436Z,23.79
2023-05-21T02:53:21.482Z,23.77
2023-05-21T02:54:21.518Z,23.77
2023-05-21T02:55:21.552Z,23.78
2023-05-21T02:56:22.677Z,23.77
2023-05-21T02:57:22.743Z,23.79
2023-05-21T02:58:21.705Z,23.80
2023-05-21T02:59:21.705Z,23.77
2023-05-21T03:00:21.936Z,23.78
2023-05-21T03:01:23.082Z,23.76
2023-05-21T03:02:22.208Z,23.76
2023-05-21T03:03:22.103Z,23.74
2023-05-21T03:04:22.020Z,23.73
2023-05-21T03:05:22.048Z,23.71
2023-05-21T03:06:22.048Z,23.71
2023-05-21T03:07:22.344Z,23.73
2023-05-21T03:08:23.184Z,23.73
2023-05-21T03:09:23.173Z,23.76
2023-05-21T03:10:22.330Z,23.77
2023-05-21T03:11:23.156Z,23.74
2023-05-21T03:12:23.196Z,23.74
2023-05-21T03:13:23.423Z,23.70
2023-05-21T03:14:22.418Z,23.71
2023-05-21T03:15:22.489Z,23.71
2023-05-21T03:16:22.462Z,23.73
2023-05-21T03:17:22.407Z,23.72
2023-05-21T03:18:22.682Z,23.71
2023-05-21T03:19:23.659Z,23.71
2023-05-21T03:20:22.525Z,23.71
2023-05-21T03:21:23.658Z,23.70
2023-05-21T03:22:23.665Z,23.71
2023-05-21T03:23:23.649Z,23.72
2023-05-21T03:24:22.684Z,23.73
2023-05-21T03:25:22.729Z,23.71
2023-05-21T03:26:23.755Z,23.70
2023-05-21T03:27:22.798Z,23.69
2023-05-21T03:28:22.884Z,23.71
2023-05-21T03:29:24.082Z,23.71
2023-05-21T03:30:23.076Z,23.74
2023-05-21T03:31:22.970Z,23.74
2023-05-21T03:32:23.241Z,23.71
2023-05-21T03:33:23.033Z,23.72
2023-05-21T03:34:23.079Z,23.72
2023-05-21T03:35:24.136Z,23.70
2023-05-21T03:36:23.171Z,23.68
2023-05-21T03:37:24.202Z,23.69
2023-05-21T03:38:23.269Z,23.69
2023-05-21T03:39:23.308Z,23.67
2023-05-21T03:40:23.332Z,23.67
2023-05-21T03:41:23.489Z,23.67
2023-05-21T03:42:23.412Z,23.66
2023-05-21T03:43:23.483Z,23.67
2023-05-21T03:44:23.518Z,23.64
2023-05-21T03:45:23.575Z,23.68
2023-05-21T03:46:24.629Z,23.67
2023-05-21T03:47:23.749Z,23.67
2023-05-21T03:48:23.704Z,23.65
2023-05-21T03:49:23.738Z,23.67
2023-05-21T03:50:23.843Z,23.68
2023-05-21T03:51:23.902Z,23.67
2023-05-21T03:52:24.888Z,23.68
2023-05-21T03:53:25.114Z,23.67
2023-05-21T03:54:25.012Z,23.70
2023-05-21T03:55:25.043Z,23.69
2023-05-21T03:56:25.055Z,23.72
2023-05-21T03:57:25.105Z,23.71
2023-05-21T03:58:24.188Z,23.68
2023-05-21T03:59:24.192Z,23.65
2023-05-21T04:00:25.269Z,23.65
2023-05-21T04:01:24.312Z,23.67
2023-05-21T04:02:24.520Z,23.66
2023-05-21T04:03:24.629Z,23.66
2023-05-21T04:04:24.535Z,23.64
2023-05-21T04:05:25.589Z,23.65
2023-05-21T04:06:24.666Z,23.63
2023-05-21T04:07:25.687Z,23.64
2023-05-21T04:08:24.603Z,23.63
2023-05-21T04:09:24.798Z,23.63
2023-05-21T04:10:25.720Z,23.63
2023-05-21T04:11:25.777Z,23.61
2023-05-21T04:12:24.957Z,23.62
2023-05-21T04:13:24.912Z,23.62
2023-05-21T04:14:24.931Z,23.63
2023-05-21T04:15:25.172Z,23.62
2023-05-21T04:16:25.124Z,23.63
2023-05-21T04:17:26.093Z,23.62
2023-05-21T04:18:26.418Z,23.63
2023-05-21T04:19:25.266Z,23.62
2023-05-21T04:20:25.350Z,23.64
2023-05-21T04:21:25.266Z,23.60
2023-05-21T04:22:26.467Z,23.62
2023-05-21T04:23:25.589Z,23.64
2023-05-21T04:24:25.400Z,23.69
2023-05-21T04:25:26.594Z,23.67
2023-05-21T04:26:25.500Z,23.64
2023-05-21T04:27:26.624Z,23.62
2023-05-21T04:28:25.663Z,23.64
2023-05-21T04:29:26.657Z,23.59
2023-05-21T04:30:25.924Z,23.59
2023-05-21T04:31:26.969Z,23.62
2023-05-21T04:32:26.908Z,23.63
2023-05-21T04:33:25.841Z,23.62
2023-05-21T04:34:26.884Z,23.60
2023-05-21T04:35:26.990Z,23.58
2023-05-21T04:36:26.993Z,23.57
2023-05-21T04:37:27.101Z,23.59
2023-05-21T04:38:26.224Z,23.60
2023-05-21T04:39:26.384Z,23.59
2023-05-21T04:40:26.326Z,23.62
2023-05-21T04:41:26.478Z,23.62
2023-05-21T04:42:27.489Z,23.62
2023-05-21T04:43:27.498Z,23.60
2023-05-21T04:44:27.392Z,23.60
2023-05-21T04:45:27.463Z,23.62
2023-05-21T04:46:26.868Z,23.62
2023-05-21T04:47:26.603Z,23.60
2023-05-21T04:48:26.637Z,23.58
2023-05-21T04:49:26.673Z,23.57
2023-05-21T04:50:27.715Z,23.57
2023-05-21T04:51:27.774Z,23.60
2023-05-21T04:52:26.941Z,23.58
2023-05-21T04:53:27.083Z,23.58
2023-05-21T04:54:27.973Z,23.58
2023-05-21T04:55:27.183Z,23.58
2023-05-21T04:56:28.223Z,23.59
2023-05-21T04:57:28.196Z,23.59
2023-05-21T04:58:28.207Z,23.57
2023-05-21T04:59:28.171Z,23.58
2023-05-21T05:00:27.392Z,23.57
2023-05-21T05:01:28.566Z,23.58
2023-05-21T05:02:28.467Z,23.56
2023-05-21T05:03:28.618Z,23.59
2023-05-21T05:04:27.459Z,23.59
2023-05-21T05:05:27.478Z,23.59
2023-05-21T05:06:28.598Z,23.56
2023-05-21T05:07:27.573Z,23.55
2023-05-21T05:08:27.624Z,23.58
2023-05-21T05:09:27.813Z,23.56
2023-05-21T05:10:28.989Z,23.54
2023-05-21T05:11:27.960Z,23.55
2023-05-21T05:12:27.929Z,23.55
2023-05-21T05:13:27.894Z,23.57
2023-05-21T05:14:28.043Z,23.56
2023-05-21T05:15:28.186Z,23.54
2023-05-21T05:16:29.297Z,23.54
2023-05-21T05:17:28.261Z,23.55
2023-05-21T05:18:29.289Z,23.55
2023-05-21T05:19:28.431Z,23.56
2023-05-21T05:20:28.317Z,23.56
2023-05-21T05:21:28.294Z,23.60
2023-05-21T05:22:29.561Z,23.58
2023-05-21T05:23:28.450Z,23.56
2023-05-21T05:24:28.678Z,23.55
2023-05-21T05:25:28.646Z,23.55
2023-05-21T05:26:28.654Z,23.53
2023-05-21T05:27:28.864Z,23.53
2023-05-21T05:28:28.691Z,23.56
2023-05-21T05:29:29.872Z,23.56
2023-05-21T05:30:29.769Z,23.54
2023-05-21T05:31:28.818Z,23.56
2023-05-21T05:32:28.909Z,23.57
2023-05-21T05:33:29.995Z,23.59
2023-05-21T05:34:29.124Z,23.58
2023-05-21T05:35:30.066Z,23.58
2023-05-21T05:36:30.028Z,23.57
2023-05-21T05:37:30.171Z,23.57
2023-05-21T05:38:30.121Z,23.56
2023-05-21T05:39:30.198Z,23.57
2023-05-21T05:40:29.222Z,23.55
2023-05-21T05:41:29.383Z,23.55
2023-05-21T05:42:29.557Z,23.57
2023-05-21T05:43:29.394Z,23.59
2023-05-21T05:44:29.567Z,23.58
2023-05-21T05:45:30.476Z,23.60
2023-05-21T05:46:29.653Z,23.62
2023-05-21T05:47:29.824Z,23.62
2023-05-21T05:48:29.650Z,23.64
2023-05-21T05:49:30.664Z,23.64
2023-05-21T05:50:29.712Z,23.66
2023-05-21T05:51:29.734Z,23.64
2023-05-21T05:52:30.885Z,23.63
2023-05-21T05:53:30.823Z,23.63
2023-05-21T05:54:31.077Z,23.66
2023-05-21T05:55:29.944Z,23.68
2023-05-21T05:56:29.957Z,23.65
2023-05-21T05:57:31.110Z,23.66
2023-05-21T05:58:30.080Z,23.66
2023-05-21T05:59:31.211Z,23.64
2023-05-21T06:00:31.305Z,23.61
2023-05-21T06:01:31.313Z,23.63
2023-05-21T06:02:31.515Z,23.65
2023-05-21T06:03:30.648Z,23.64
2023-05-21T06:04:30.533Z,23.62
2023-05-21T06:05:30.468Z,23.62
2023-05-21T06:06:30.450Z,23.64
2023-05-21T06:07:31.581Z,23.62
2023-05-21T06:08:31.636Z,23.63
2023-05-21T06:09:30.697Z,23.63
2023-05-21T06:10:30.856Z,23.63
2023-05-21T06:11:31.724Z,23.66
2023-05-21T06:12:31.958Z,23.67
2023-05-21T06:13:30.941Z,23.66
2023-05-21T06:14:31.151Z,23.66
2023-05-21T06:15:30.970Z,23.68
2023-05-21T06:16:31.059Z,23.70
2023-05-21T06:17:32.250Z,23.68
2023-05-21T06:18:32.212Z,23.65
2023-05-21T06:19:31.500Z,23.65
2023-05-21T06:20:31.261Z,23.67
2023-05-21T06:21:31.316Z,23.69
2023-05-21T06:22:31.368Z,23.67
2023-05-21T06:23:32.565Z,23.68
2023-05-21T06:24:31.493Z,23.68
2023-05-21T06:25:32.539Z,23.68
2023-05-21T06:26:31.612Z,23.66
2023-05-21T06:27:31.669Z,23.67
2023-05-21T06:28:32.701Z,23.64
2023-05-21T06:29:31.790Z,23.67
2023-05-21T06:30:31.824Z,23.65
2023-05-21T06:31:31.889Z,23.66
2023-05-21T06:32:33.122Z,23.66
2023-05-21T06:33:33.086Z,23.65
2023-05-21T06:34:32.058Z,23.64
2023-05-21T06:35:32.120Z,23.63
2023-05-21T06:36:32.182Z,23.65
2023-05-21T06:37:33.367Z,23.65
2023-05-21T06:38:32.289Z,23.65
2023-05-21T06:39:32.361Z,23.65
2023-05-21T06:40:33.537Z,23.66
2023-05-21T06:41:32.466Z,23.67
2023-05-21T06:42:33.565Z,23.67
2023-05-21T06:43:33.658Z,23.64
2023-05-21T06:44:33.664Z,23.65
2023-05-21T06:45:32.896Z,23.66
2023-05-21T06:46:32.793Z,23.67
2023-05-21T06:47:33.949Z,23.67
2023-05-21T06:48:32.975Z,23.68
2023-05-21T06:49:33.061Z,23.69
2023-05-21T06:50:33.009Z,23.68
2023-05-21T06:51:33.046Z,23.68
2023-05-21T06:52:34.255Z,23.69
2023-05-21T06:53:33.098Z,23.70
2023-05-21T06:54:34.183Z,23.69
2023-05-21T06:55:34.323Z,23.71
2023-05-21T06:56:33.249Z,23.72
2023-05-21T06:57:34.290Z,23.73
2023-05-21T06:58:34.406Z,23.74
2023-05-21T06:59:33.469Z,23.74
2023-05-21T07:00:33.585Z,23.75
2023-05-21T07:01:34.609Z,23.77
2023-05-21T07:02:33.562Z,23.76
2023-05-21T07:03:33.748Z,23.76
2023-05-21T07:04:33.736Z,23.78
2023-05-21T07:05:34.992Z,23.78
2023-05-21T07:06:33.861Z,23.79
2023-05-21T07:07:34.995Z,23.81
2023-05-21T07:08:34.769Z,23.81
2023-05-21T07:09:33.796Z,23.81
2023-05-21T07:10:33.914Z,23.81
2023-05-21T07:11:33.906Z,23.83
2023-05-21T07:12:34.940Z,23.83
2023-05-21T07:13:34.959Z,23.84
2023-05-21T07:14:33.985Z,23.84
2023-05-21T07:15:35.265Z,23.84
2023-05-21T07:16:34.185Z,23.84
2023-05-21T07:17:34.241Z,23.84
2023-05-21T07:18:34.216Z,23.85
2023-05-21T07:19:34.267Z,23.85
2023-05-21T07:20:35.288Z,23.87
2023-05-21T07:21:35.200Z,23.88
2023-05-21T07:22:35.359Z,23.87
2023-05-21T07:23:35.361Z,23.87
2023-05-21T07:24:35.340Z,23.88
2023-05-21T07:25:34.522Z,23.89
2023-05-21T07:26:34.349Z,23.90
2023-05-21T07:27:34.372Z,23.92
2023-05-21T07:28:34.335Z,23.94
2023-05-21T07:29:34.537Z,23.92
2023-05-21T07:30:35.452Z,23.93
2023-05-21T07:31:35.688Z,23.92
2023-05-21T07:32:34.502Z,23.92
2023-05-21T07:33:35.425Z,23.94
2023-05-21T07:34:35.433Z,23.93
2023-05-21T07:35:35.661Z,23.95
2023-05-21T07:36:35.552Z,23.95
2023-05-21T07:37:34.606Z,23.97
2023-05-21T07:38:34.594Z,23.98
2023-05-21T07:39:34.739Z,23.98
2023-05-21T07:40:35.534Z,23.99
2023-05-21T07:41:35.645Z,24.00
2023-05-21T07:42:34.524Z,24.01
2023-05-21T07:43:34.490Z,24.00
2023-05-21T07:44:35.703Z,24.01
2023-05-21T07:45:34.763Z,24.01
2023-05-21T07:46:34.644Z,24.01
2023-05-21T07:47:34.694Z,24.03
2023-05-21T07:48:35.864Z,24.02
2023-05-21T07:49:34.715Z,24.04
2023-05-21T07:50:34.609Z,24.04
2023-05-21T07:51:34.577Z,24.04
2023-05-21T07:52:34.802Z,24.05
2023-05-21T07:53:34.762Z,24.05
2023-05-21T07:54:34.493Z,24.05
2023-05-21T07:55:35.766Z,24.04
2023-05-21T07:56:35.504Z,24.04
2023-05-21T07:57:34.646Z,24.04
2023-05-21T07:58:34.497Z,24.05
2023-05-21T07:59:34.506Z,24.04
2023-05-21T08:00:34.559Z,24.05
2023-05-21T08:01:34.591Z,24.06
2023-05-21T08:02:35.641Z,24.06
2023-05-21T08:03:34.717Z,24.05
2023-05-21T08:04:36.530Z,24.05
2023-05-21T08:05:34.660Z,24.05
2023-05-21T08:06:34.709Z,24.05
2023-05-21T08:07:35.524Z,24.05
2023-05-21T08:08:34.489Z,24.06
2023-05-21T08:09:34.495Z,24.05
2023-05-21T08:10:34.453Z,24.05
2023-05-21T08:11:34.443Z,24.07
2023-05-21T08:12:34.424Z,24.08
2023-05-21T08:13:35.572Z,24.08
2023-05-21T08:14:35.593Z,24.07
2023-05-21T08:15:35.908Z,24.07
2023-05-21T08:16:34.615Z,24.06
2023-05-21T08:17:35.575Z,24.08
2023-05-21T08:18:35.395Z,24.09
2023-05-21T08:19:35.520Z,24.08
2023-05-21T08:20:34.476Z,24.09
2023-05-21T08:21:34.544Z,24.09
2023-05-21T08:22:34.370Z,24.10
2023-05-21T08:23:34.548Z,24.12
2023-05-21T08:24:34.686Z,24.10
2023-05-21T08:25:35.884Z,24.09
2023-05-21T08:26:34.386Z,24.09
2023-05-21T08:27:34.333Z,24.08
2023-05-21T08:28:35.311Z,24.06
2023-05-21T08:29:35.328Z,24.04
2023-05-21T08:30:35.417Z,24.08
2023-05-21T08:31:35.361Z,24.09
2023-05-21T08:32:34.330Z,24.09
2023-05-21T08:33:34.273Z,24.07
2023-05-21T08:34:35.272Z,24.03
2023-05-21T08:35:34.442Z,24.00
2023-05-21T08:36:34.338Z,23.99
2023-05-21T08:37:35.299Z,24.02
2023-05-21T08:38:34.302Z,24.07
2023-05-21T08:39:35.263Z,24.04
2023-05-21T08:40:34.251Z,24.04
2023-05-21T08:41:34.228Z,24.10
2023-05-21T08:42:37.362Z,24.11
2023-05-21T08:43:34.252Z,24.09
2023-05-21T08:44:34.248Z,24.07
2023-05-21T08:45:35.564Z,24.05
2023-05-21T08:46:34.380Z,24.04
2023-05-21T08:47:35.317Z,24.04
2023-05-21T08:48:34.405Z,24.05
2023-05-21T08:49:34.219Z,24.07
2023-05-21T08:50:35.203Z,24.06
2023-05-21T08:51:34.338Z,24.06
2023-05-21T08:52:35.175Z,23.99
2023-05-21T08:53:35.208Z,24.04
2023-05-21T08:54:34.381Z,24.07
2023-05-21T08:55:34.383Z,24.03
2023-05-21T08:56:35.192Z,24.06
2023-05-21T08:57:34.239Z,24.04
2023-05-21T08:58:35.278Z,24.02
2023-05-21T08:59:35.264Z,23.97
2023-05-21T09:00:34.116Z,23.98
2023-05-21T09:01:34.372Z,23.96
2023-05-21T09:02:34.525Z,23.93
2023-05-21T09:03:34.371Z,23.97
2023-05-21T09:04:34.428Z,23.96
2023-05-21T09:05:34.713Z,23.95
2023-05-21T09:06:35.443Z,23.89
2023-05-21T09:07:34.518Z,23.93
2023-05-21T09:08:34.701Z,23.90
2023-05-21T09:09:35.673Z,23.90
2023-05-21T09:10:34.869Z,23.88
2023-05-21T09:11:34.730Z,23.85
2023-05-21T09:12:35.977Z,23.84
2023-05-21T09:13:35.846Z,23.79
2023-05-21T09:14:36.055Z,23.82
2023-05-21T09:15:35.256Z,23.87
2023-05-21T09:16:36.182Z,23.87
2023-05-21T09:17:36.319Z,23.84
2023-05-21T09:18:36.248Z,23.84
2023-05-21T09:19:35.456Z,23.85
2023-05-21T09:20:35.328Z,23.84
2023-05-21T09:21:35.501Z,23.84
2023-05-21T09:22:35.418Z,23.88
2023-05-21T09:23:36.540Z,23.93
2023-05-21T09:24:36.737Z,23.94
2023-05-21T09:25:36.701Z,23.91
2023-05-21T09:26:35.856Z,23.86
2023-05-21T09:27:35.665Z,23.89
2023-05-21T09:28:35.912Z,23.89
2023-05-21T09:29:36.838Z,23.93
2023-05-21T09:30:36.528Z,23.95
2023-05-21T09:31:37.115Z,23.90
2023-05-21T09:32:37.182Z,23.95
2023-05-21T09:33:36.080Z,23.96
2023-05-21T09:34:36.994Z,23.95
2023-05-21T09:35:37.545Z,23.99
2023-05-21T09:36:36.251Z,23.97
2023-05-21T09:37:36.113Z,23.89
2023-05-21T09:38:36.372Z,23.88
2023-05-21T09:39:36.163Z,23.92
2023-05-21T09:40:36.473Z,23.97
2023-05-21T09:41:37.260Z,23.86
2023-05-21T09:42:37.293Z,23.85
2023-05-21T09:43:36.329Z,24.04
2023-05-21T09:44:36.393Z,24.03
2023-05-21T09:45:36.581Z,24.06
2023-05-21T09:46:36.444Z,24.00
2023-05-21T09:47:36.651Z,24.02
2023-05-21T09:48:36.704Z,24.07
2023-05-21T09:49:37.800Z,24.01
2023-05-21T09:50:37.983Z,24.06
2023-05-21T09:51:36.821Z,24.06
2023-05-21T09:52:39.095Z,24.08
2023-05-21T09:53:37.680Z,24.08
2023-05-21T09:54:36.717Z,24.10
2023-05-21T09:55:36.732Z,24.14
2023-05-21T09:56:37.855Z,24.08
2023-05-21T09:57:37.659Z,24.17
2023-05-21T09:58:37.643Z,24.21
2023-05-21T09:59:36.638Z,24.22
2023-05-21T10:00:37.933Z,24.26
2023-05-21T10:01:36.719Z,24.28
2023-05-21T10:02:36.744Z,24.37
2023-05-21T10:03:36.612Z,24.42
2023-05-21T10:04:36.876Z,24.42
2023-05-21T10:05:36.694Z,24.41
2023-05-21T10:06:37.603Z,24.38
2023-05-21T10:07:36.673Z,24.44
2023-05-21T10:08:37.832Z,24.44
2023-05-21T10:09:36.576Z,24.46
2023-05-21T10:10:37.817Z,24.53
2023-05-21T10:11:36.741Z,24.52
2023-05-21T10:12:37.714Z,24.51
2023-05-21T10:13:37.542Z,24.60
2023-05-21T10:14:37.558Z,24.69
2023-05-21T10:15:37.582Z,24.64
2023-05-21T10:16:37.776Z,24.70
2023-05-21T10:17:37.604Z,24.78
2023-05-21T10:18:37.675Z,24.71
2023-05-21T10:19:36.524Z,24.77
2023-05-21T10:20:38.011Z,24.86
2023-05-21T10:21:37.479Z,24.87
2023-05-21T10:22:37.561Z,24.88
2023-05-21T10:23:37.510Z,24.85
2023-05-21T10:24:37.549Z,24.87
2023-05-21T10:25:37.743Z,25.00
2023-05-21T10:26:36.814Z,24.96
2023-05-21T10:27:36.703Z,24.96
2023-05-21T10:28:37.678Z,24.97
2023-05-21T10:29:37.825Z,25.01
2023-05-21T10:30:38.448Z,25.03
2023-05-21T10:31:37.791Z,25.04
2023-05-21T10:32:38.150Z,25.03
2023-05-21T10:33:37.947Z,25.05
2023-05-21T10:34:37.879Z,25.12
2023-05-21T10:35:37.399Z,25.11
2023-05-21T10:36:37.084Z,25.16
2023-05-21T10:37:38.039Z,25.13
2023-05-21T10:38:36.984Z,25.15
2023-05-21T10:39:38.024Z,25.18
2023-05-21T10:40:38.223Z,25.17
2023-05-21T10:41:38.129Z,25.17
2023-05-21T10:42:37.100Z,25.20
2023-05-21T10:43:37.145Z,25.23
2023-05-21T10:44:37.307Z,25.24
2023-05-21T10:45:37.284Z,25.24
2023-05-21T10:46:37.217Z,25.24
2023-05-21T10:47:38.351Z,25.25
2023-05-21T10:48:37.311Z,25.28
2023-05-21T10:49:38.396Z,25.29
2023-05-21T10:50:38.723Z,25.28
2023-05-21T10:51:38.318Z,25.27
2023-05-21T10:52:37.339Z,25.27
2023-05-21T10:53:38.364Z,25.27
2023-05-21T10:54:38.370Z,25.28
2023-05-21T10:55:37.426Z,25.29
2023-05-21T10:56:37.506Z,25.29
2023-05-21T10:57:37.424Z,25.29
2023-05-21T10:58:37.645Z,25.32
2023-05-21T10:59:37.481Z,25.33
2023-05-21T11:00:37.803Z,25.35
2023-05-21T11:01:38.556Z,25.34
2023-05-21T11:02:37.910Z,25.36
2023-05-21T11:03:38.954Z,25.36
2023-05-21T11:04:37.623Z,25.35
2023-05-21T11:05:37.692Z,25.35
2023-05-21T11:06:37.584Z,25.37
2023-05-21T11:07:37.601Z,25.38
2023-05-21T11:08:37.678Z,25.37
2023-05-21T11:09:38.707Z,25.36
2023-05-21T11:10:39.116Z,25.38
2023-05-21T11:11:37.684Z,25.37
2023-05-21T11:12:38.689Z,25.39
2023-05-21T11:13:37.759Z,25.35
2023-05-21T11:14:38.733Z,25.37
2023-05-21T11:15:37.748Z,25.37
2023-05-21T11:16:38.824Z,25.38
2023-05-21T11:17:37.816Z,25.41
2023-05-21T11:18:37.791Z,25.41
2023-05-21T11:19:38.012Z,25.41
2023-05-21T11:20:38.113Z,25.42
2023-05-21T11:21:38.841Z,25.40
2023-05-21T11:22:37.899Z,25.42
2023-05-21T11:23:37.891Z,25.42
2023-05-21T11:24:38.970Z,25.41
2023-05-21T11:25:37.919Z,25.43
2023-05-21T11:26:38.940Z,25.43
2023-05-21T11:27:38.962Z,25.38
2023-05-21T11:28:38.958Z,25.42
2023-05-21T11:29:38.043Z,25.46
2023-05-21T11:30:41.002Z,25.47
2023-05-21T11:31:38.121Z,25.44
2023-05-21T11:32:38.038Z,25.42
2023-05-21T11:33:38.012Z,25.46
2023-05-21T11:34:38.137Z,25.47
2023-05-21T11:35:38.165Z,25.48
2023-05-21T11:36:38.203Z,25.48
2023-05-21T11:37:38.128Z,25.45
2023-05-21T11:38:37.936Z,25.48
2023-05-21T11:39:37.942Z,25.41
2023-05-21T11:40:39.078Z,25.46
2023-05-21T11:41:38.897Z,25.49
2023-05-21T11:42:38.078Z,25.47
2023-05-21T11:43:39.120Z,25.47
2023-05-21T11:44:38.070Z,25.48
2023-05-21T11:45:37.893Z,25.48
2023-05-21T11:46:37.979Z,25.48
2023-05-21T11:47:38.891Z,25.50
2023-05-21T11:48:37.865Z,25.49
2023-05-21T11:49:38.838Z,25.47
2023-05-21T11:50:38.506Z,25.45
2023-05-21T11:51:38.054Z,25.46
2023-05-21T11:52:37.902Z,25.50
2023-05-21T11:53:37.870Z,25.50
2023-05-21T11:54:38.011Z,25.42
2023-05-21T11:55:37.811Z,25.47
2023-05-21T11:56:38.835Z,25.48
2023-05-21T11:57:37.785Z,25.45
2023-05-21T11:58:38.829Z,25.48
2023-05-21T11:59:38.808Z,25.50
2023-05-21T12:00:39.001Z,25.49
2023-05-21T12:01:37.759Z,25.50
2023-05-21T12:02:38.795Z,25.51
2023-05-21T12:03:37.932Z,25.50
2023-05-21T12:04:37.769Z,25.51
2023-05-21T12:05:37.902Z,25.49
2023-05-21T12:06:37.727Z,25.50
2023-05-21T12:07:37.937Z,25.52
2023-05-21T12:08:37.863Z,25.47
2023-05-21T12:09:37.698Z,25.49
2023-05-21T12:10:37.915Z,25.51
2023-05-21T12:11:38.728Z,25.48
2023-05-21T12:12:50.500Z,25.46
2023-05-21T12:13:38.758Z,25.50
2023-05-21T12:14:37.673Z,25.53
2023-05-21T12:15:37.756Z,25.51
2023-05-21T12:16:37.878Z,25.50
2023-05-21T12:17:38.699Z,25.52
2023-05-21T12:18:37.734Z,25.47
2023-05-21T12:19:37.625Z,25.49
2023-05-21T12:20:38.026Z,25.51
2023-05-21T12:21:37.755Z,25.48
2023-05-21T12:22:37.632Z,25.41
2023-05-21T12:23:37.710Z,25.47
2023-05-21T12:24:38.835Z,25.48
2023-05-21T12:25:37.674Z,25.46
2023-05-21T12:26:38.608Z,25.49
2023-05-21T12:27:38.742Z,25.49
2023-05-21T12:28:37.554Z,25.52
2023-05-21T12:29:37.581Z,25.50
2023-05-21T12:30:38.028Z,25.48
2023-05-21T12:31:38.609Z,25.52
2023-05-21T12:32:37.715Z,25.47
2023-05-21T12:33:38.639Z,25.48
2023-05-21T12:34:37.557Z,25.43
2023-05-21T12:35:37.672Z,25.43
2023-05-21T12:36:37.712Z,25.50
2023-05-21T12:37:37.500Z,25.50
2023-05-21T12:38:37.490Z,25.49
2023-05-21T12:39:37.492Z,25.50
2023-05-21T12:40:39.616Z,25.48
2023-05-21T12:41:37.526Z,25.56
2023-05-21T12:42:37.708Z,25.54
2023-05-21T12:43:38.553Z,25.55
2023-05-21T12:44:37.454Z,25.54
2023-05-21T12:45:37.454Z,25.54
2023-05-21T12:46:37.495Z,25.56
2023-05-21T12:47:38.513Z,25.57
2023-05-21T12:48:37.633Z,25.53
2023-05-21T12:49:38.564Z,25.51
2023-05-21T12:50:37.714Z,25.53
2023-05-21T12:51:37.610Z,25.49
2023-05-21T12:52:37.379Z,25.46